Tropical Cyclones
[Index]
Main Index Home Page Stock Weather Photos Extreme Storms Discussion Storm News and Storm Chasing Reports Tropical Cyclones / Hurricanes / Typhoons Weather Data and Links Wild Fires / Bushfires Weather Observation Techniques Weather Picture Catalogue Tornado Pictures and Reports Stock Video Footage and DVDs for sale
Season 1998-1999 Tropical Cyclone DAMIEN Track Map
Season 1998-1999 Summaries: [BoM-AU] [JTWC-AU] [JTWC-SIO] [JTWC-SPAC] [JTWC-SH]
<<- Previous TC | BoM 1998-1999 Season | Next TC ->>

click for intensity scale information  Lat/long Grid: Show Hide

 Date Labels: Show Hide

Bureau of Meteorology Tropical Cyclone Data

Name: DAMIEN
Number: 822 / 199899_07

21 Jan 1999 07:00 UTC to 28 Jan 1999 10:00 UTC

    date/time    lat    long    hPa   cat  kts
1999-01-21 07   12.8   112.8    998         29          
1999-01-21 10   12.8   112.4    995    1    35          
1999-01-21 13   12.9   112.1    990    1    41          
1999-01-21 16   12.9   111.6    990    1    41          
1999-01-21 19   13.0   111.2    990    1    41          
1999-01-21 22   13.1   110.7    990    1    41          
1999-01-22 01   13.2   110.2    990    1    41          
1999-01-22 04   13.2   109.7    990    1    41          
1999-01-22 07   13.2   109.2    990    1    41          
1999-01-22 10   13.2   108.8    990    1    41          
1999-01-22 13   13.2   108.4    990    1    41          
1999-01-22 16   13.3   107.9    990    1    41          
1999-01-22 19   13.3   107.4    990    1    41          
1999-01-22 22   13.4   106.9    990    1    41          
1999-01-23 01   13.5   106.5    985    2    49          
1999-01-23 04   13.6   106.0    985    2    49          
1999-01-23 07   13.7   105.5    980    2    54          
1999-01-23 10   13.9   105.0    980    2    54          
1999-01-23 13   14.1   104.5    975    2    60          
1999-01-23 16   14.3   104.1    970    3    64          
1999-01-23 19   14.5   103.6    970    3    64          
1999-01-23 22   14.6   103.2    970    3    64          
1999-01-24 01   14.8   102.6    965    3    70          
1999-01-24 04   15.0   102.0    960    3    76          
1999-01-24 07   15.3   101.4    960    3    76          
1999-01-24 10   15.5   100.8    955    4    80          
1999-01-24 13   15.6   100.2    955    4    80          
1999-01-24 16   15.8    99.7    955    4    80          
1999-01-24 19   15.9    99.1    955    4    80          
1999-01-24 22   16.0    98.6    950    4    84          
1999-01-25 01   16.0    97.9    950    4    84          
1999-01-25 04   15.9    97.3    955    4    80          
1999-01-25 07   15.8    96.6    955    4    80          
1999-01-25 10   15.7    96.1    960    3    76          
1999-01-25 13   15.5    95.7    960    3    76          
1999-01-25 16   15.3    95.4    965    3    70          
1999-01-25 19   15.1    95.2    970    3    64          
1999-01-25 22   14.9    95.0    975    2    60          
1999-01-26 01   14.7    94.8    975    2    60          
1999-01-26 04   14.5    94.6    980    2    54          
1999-01-26 07   14.4    94.5    985    2    49          
1999-01-26 10   14.4    94.3    985    2    49          
1999-01-26 13   14.4    94.2    985    2    49          
1999-01-26 16   14.4    94.1    985    2    49          
1999-01-26 19   14.5    94.0    985    2    49          
1999-01-26 22   14.5    93.9    985    2    49          
1999-01-27 01   14.6    93.8    985    2    49          
1999-01-27 04   14.7    93.5    985    2    49          
1999-01-27 07   14.7    93.4    985    2    49          
1999-01-27 10   15.0    93.0    990    1    41          
1999-01-27 13   15.2    92.8    990    1    41          
1999-01-27 16   15.3    92.4    990    1    41          
1999-01-27 19   15.6    92.0    990    1    41          
1999-01-27 22   15.8    91.6    990    1    41          
1999-01-28 01   16.0    91.1    995    1    35          
1999-01-28 04   16.2    90.5    995    1    35          
1999-01-28 07   16.4    90.0   1000         27          
1999-01-28 10   16.7    89.5   1000         27          
Winds are 10-min average.

Tropical cyclone tracks developed by Michael Bath using data from the Bureau of Meteorology and Google Maps.


[Australian Severe Weather index] [Copyright Notice] [Email Contacts] [Search This Site] [Privacy Policy]
Document: tropical_cyclone_damien.htm Updated: 30 May 2013